sensor_id;sensor_type;location;lat;lon;timestamp;temperature;humidity
10263;DHT22;5177;50.068;8.156;2023-06-24T00:02:10;19.20;99.90
10263;DHT22;5177;50.068;8.156;2023-06-24T00:04:36;19.20;99.90
10263;DHT22;5177;50.068;8.156;2023-06-24T00:07:01;19.20;99.90
10263;DHT22;5177;50.068;8.156;2023-06-24T00:09:27;19.20;99.90
10263;DHT22;5177;50.068;8.156;2023-06-24T00:11:53;19.20;99.90
10263;DHT22;5177;50.068;8.156;2023-06-24T00:14:20;19.10;1.00
10263;DHT22;5177;50.068;8.156;2023-06-24T00:16:46;19.10;1.00
10263;DHT22;5177;50.068;8.156;2023-06-24T00:19:19;19.00;1.00
10263;DHT22;5177;50.068;8.156;2023-06-24T00:21:45;19.00;1.00
10263;DHT22;5177;50.068;8.156;2023-06-24T00:24:10;19.00;1.00
10263;DHT22;5177;50.068;8.156;2023-06-24T00:26:36;18.90;42.10
10263;DHT22;5177;50.068;8.156;2023-06-24T00:29:01;18.90;99.90
10263;DHT22;5177;50.068;8.156;2023-06-24T00:31:26;18.90;99.90
10263;DHT22;5177;50.068;8.156;2023-06-24T00:33:52;18.90;99.90
10263;DHT22;5177;50.068;8.156;2023-06-24T00:36:18;18.90;96.70
10263;DHT22;5177;50.068;8.156;2023-06-24T00:38:43;18.90;46.30
10263;DHT22;5177;50.068;8.156;2023-06-24T00:41:09;18.90;74.70
10263;DHT22;5177;50.068;8.156;2023-06-24T00:43:35;18.80;27.00
10263;DHT22;5177;50.068;8.156;2023-06-24T00:46:00;18.80;42.10
10263;DHT22;5177;50.068;8.156;2023-06-24T00:48:26;18.70;84.50
10263;DHT22;5177;50.068;8.156;2023-06-24T00:50:51;18.70;48.80
10263;DHT22;5177;50.068;8.156;2023-06-24T00:53:17;18.60;99.90
10263;DHT22;5177;50.068;8.156;2023-06-24T00:55:43;18.60;99.90
10263;DHT22;5177;50.068;8.156;2023-06-24T00:58:11;18.60;99.90
10263;DHT22;5177;50.068;8.156;2023-06-24T01:00:41;18.50;99.90
10263;DHT22;5177;50.068;8.156;2023-06-24T01:03:07;18.50;1.00
10263;DHT22;5177;50.068;8.156;2023-06-24T01:05:33;18.50;1.00
10263;DHT22;5177;50.068;8.156;2023-06-24T01:08:00;18.40;1.00
10263;DHT22;5177;50.068;8.156;2023-06-24T01:10:26;18.40;1.00
10263;DHT22;5177;50.068;8.156;2023-06-24T01:12:52;18.30;1.00
10263;DHT22;5177;50.068;8.156;2023-06-24T01:15:18;18.30;1.00
10263;DHT22;5177;50.068;8.156;2023-06-24T01:28:17;18.10;1.00
10263;DHT22;5177;50.068;8.156;2023-06-24T01:33:15;18.00;1.00
10263;DHT22;5177;50.068;8.156;2023-06-24T01:35:44;18.00;1.00
10263;DHT22;5177;50.068;8.156;2023-06-24T01:38:13;17.90;1.00
10263;DHT22;5177;50.068;8.156;2023-06-24T01:40:41;17.90;71.60
10263;DHT22;5177;50.068;8.156;2023-06-24T01:43:08;17.90;99.90
10263;DHT22;5177;50.068;8.156;2023-06-24T01:45:45;17.80;99.90
10263;DHT22;5177;50.068;8.156;2023-06-24T01:48:15;17.80;99.90
10263;DHT22;5177;50.068;8.156;2023-06-24T01:53:39;17.80;99.90
10263;DHT22;5177;50.068;8.156;2023-06-24T01:56:08;17.80;99.90
10263;DHT22;5177;50.068;8.156;2023-06-24T01:58:35;17.80;99.90
10263;DHT22;5177;50.068;8.156;2023-06-24T02:01:02;17.80;99.90
10263;DHT22;5177;50.068;8.156;2023-06-24T02:03:28;17.80;1.00
10263;DHT22;5177;50.068;8.156;2023-06-24T02:05:54;17.70;1.00
10263;DHT22;5177;50.068;8.156;2023-06-24T02:08:20;17.70;1.00
10263;DHT22;5177;50.068;8.156;2023-06-24T02:10:47;17.70;1.00
10263;DHT22;5177;50.068;8.156;2023-06-24T02:13:12;17.70;1.00
10263;DHT22;5177;50.068;8.156;2023-06-24T02:15:38;17.70;1.00
10263;DHT22;5177;50.068;8.156;2023-06-24T02:18:04;17.70;1.00
10263;DHT22;5177;50.068;8.156;2023-06-24T02:20:31;17.70;1.00
10263;DHT22;5177;50.068;8.156;2023-06-24T02:22:56;17.70;1.00
10263;DHT22;5177;50.068;8.156;2023-06-24T02:25:24;17.60;1.00
10263;DHT22;5177;50.068;8.156;2023-06-24T02:27:50;17.70;99.90
10263;DHT22;5177;50.068;8.156;2023-06-24T02:30:16;17.60;1.00
10263;DHT22;5177;50.068;8.156;2023-06-24T02:32:41;17.60;99.90
10263;DHT22;5177;50.068;8.156;2023-06-24T02:35:07;17.50;97.40
10263;DHT22;5177;50.068;8.156;2023-06-24T02:37:33;17.60;1.00
10263;DHT22;5177;50.068;8.156;2023-06-24T02:39:58;17.50;1.00
10263;DHT22;5177;50.068;8.156;2023-06-24T02:42:25;17.50;99.90
10263;DHT22;5177;50.068;8.156;2023-06-24T02:44:50;17.40;99.90
10263;DHT22;5177;50.068;8.156;2023-06-24T02:47:16;17.50;1.00
10263;DHT22;5177;50.068;8.156;2023-06-24T02:49:42;17.40;27.70
10263;DHT22;5177;50.068;8.156;2023-06-24T02:52:08;17.30;1.00
10263;DHT22;5177;50.068;8.156;2023-06-24T02:54:33;17.30;99.90
10263;DHT22;5177;50.068;8.156;2023-06-24T02:57:00;17.30;99.90
10263;DHT22;5177;50.068;8.156;2023-06-24T02:59:25;17.20;1.00
10263;DHT22;5177;50.068;8.156;2023-06-24T03:01:51;17.20;1.00
10263;DHT22;5177;50.068;8.156;2023-06-24T03:04:17;17.30;1.00
10263;DHT22;5177;50.068;8.156;2023-06-24T03:06:44;17.20;1.00
10263;DHT22;5177;50.068;8.156;2023-06-24T03:09:09;17.20;1.00
10263;DHT22;5177;50.068;8.156;2023-06-24T03:11:41;17.20;1.00
10263;DHT22;5177;50.068;8.156;2023-06-24T03:14:07;17.20;21.10
10263;DHT22;5177;50.068;8.156;2023-06-24T03:16:32;17.10;99.90
10263;DHT22;5177;50.068;8.156;2023-06-24T03:18:58;17.10;1.00
10263;DHT22;5177;50.068;8.156;2023-06-24T03:21:24;17.10;1.00
10263;DHT22;5177;50.068;8.156;2023-06-24T03:23:54;17.10;1.00
10263;DHT22;5177;50.068;8.156;2023-06-24T03:26:19;17.10;49.60
10263;DHT22;5177;50.068;8.156;2023-06-24T03:28:45;17.10;99.90
10263;DHT22;5177;50.068;8.156;2023-06-24T03:31:10;17.10;99.90
10263;DHT22;5177;50.068;8.156;2023-06-24T03:33:36;17.00;1.00
10263;DHT22;5177;50.068;8.156;2023-06-24T03:36:02;17.00;1.00
10263;DHT22;5177;50.068;8.156;2023-06-24T03:38:27;17.00;1.00
10263;DHT22;5177;50.068;8.156;2023-06-24T03:40:53;17.00;1.00
10263;DHT22;5177;50.068;8.156;2023-06-24T03:43:19;17.00;99.90
10263;DHT22;5177;50.068;8.156;2023-06-24T03:45:44;16.90;99.90
10263;DHT22;5177;50.068;8.156;2023-06-24T03:48:10;16.90;99.90
10263;DHT22;5177;50.068;8.156;2023-06-24T03:50:35;16.90;1.00
10263;DHT22;5177;50.068;8.156;2023-06-24T03:53:02;16.90;99.90
10263;DHT22;5177;50.068;8.156;2023-06-24T03:55:27;16.90;1.00
10263;DHT22;5177;50.068;8.156;2023-06-24T03:57:52;17.00;1.00
10263;DHT22;5177;50.068;8.156;2023-06-24T04:00:18;17.00;1.00
10263;DHT22;5177;50.068;8.156;2023-06-24T04:02:46;17.00;1.00
10263;DHT22;5177;50.068;8.156;2023-06-24T04:05:11;17.10;1.00
10263;DHT22;5177;50.068;8.156;2023-06-24T04:07:37;17.00;1.00
10263;DHT22;5177;50.068;8.156;2023-06-24T04:10:03;17.00;1.00
10263;DHT22;5177;50.068;8.156;2023-06-24T04:12:29;17.10;1.00
10263;DHT22;5177;50.068;8.156;2023-06-24T04:14:55;17.10;1.00
10263;DHT22;5177;50.068;8.156;2023-06-24T04:17:20;17.10;99.90
10263;DHT22;5177;50.068;8.156;2023-06-24T04:19:46;17.10;99.90
10263;DHT22;5177;50.068;8.156;2023-06-24T04:22:11;17.10;1.00
10263;DHT22;5177;50.068;8.156;2023-06-24T04:24:37;17.20;1.00
10263;DHT22;5177;50.068;8.156;2023-06-24T04:27:02;17.10;1.00
10263;DHT22;5177;50.068;8.156;2023-06-24T04:29:28;17.10;1.00
10263;DHT22;5177;50.068;8.156;2023-06-24T04:31:53;17.20;1.00
10263;DHT22;5177;50.068;8.156;2023-06-24T04:34:19;17.20;1.00
10263;DHT22;5177;50.068;8.156;2023-06-24T04:36:44;17.20;1.00
10263;DHT22;5177;50.068;8.156;2023-06-24T04:39:09;17.30;1.00
10263;DHT22;5177;50.068;8.156;2023-06-24T04:41:35;17.30;99.90
10263;DHT22;5177;50.068;8.156;2023-06-24T04:44:00;17.40;99.90
10263;DHT22;5177;50.068;8.156;2023-06-24T04:46:26;17.40;99.90
10263;DHT22;5177;50.068;8.156;2023-06-24T04:48:51;17.40;99.90
10263;DHT22;5177;50.068;8.156;2023-06-24T04:51:17;17.50;1.00
10263;DHT22;5177;50.068;8.156;2023-06-24T04:53:42;17.60;1.20
10263;DHT22;5177;50.068;8.156;2023-06-24T04:56:08;17.70;99.90
10263;DHT22;5177;50.068;8.156;2023-06-24T04:58:33;17.60;99.90
10263;DHT22;5177;50.068;8.156;2023-06-24T05:00:59;17.70;99.90
10263;DHT22;5177;50.068;8.156;2023-06-24T05:03:24;17.90;99.90
10263;DHT22;5177;50.068;8.156;2023-06-24T05:05:50;17.80;99.90
10263;DHT22;5177;50.068;8.156;2023-06-24T05:08:15;17.90;1.00
10263;DHT22;5177;50.068;8.156;2023-06-24T05:10:41;18.00;1.00
10263;DHT22;5177;50.068;8.156;2023-06-24T05:13:06;18.00;1.00
10263;DHT22;5177;50.068;8.156;2023-06-24T05:15:32;18.10;1.00
10263;DHT22;5177;50.068;8.156;2023-06-24T05:17:57;18.20;1.00
10263;DHT22;5177;50.068;8.156;2023-06-24T05:20:23;18.20;99.90
10263;DHT22;5177;50.068;8.156;2023-06-24T05:22:48;18.40;1.00
10263;DHT22;5177;50.068;8.156;2023-06-24T05:25:14;18.50;1.00
10263;DHT22;5177;50.068;8.156;2023-06-24T05:27:39;18.60;1.00
10263;DHT22;5177;50.068;8.156;2023-06-24T05:30:05;18.60;1.00
10263;DHT22;5177;50.068;8.156;2023-06-24T05:32:31;18.70;1.00
10263;DHT22;5177;50.068;8.156;2023-06-24T05:34:56;18.70;99.90
10263;DHT22;5177;50.068;8.156;2023-06-24T05:37:22;18.80;1.00
10263;DHT22;5177;50.068;8.156;2023-06-24T05:39:47;18.70;1.00
10263;DHT22;5177;50.068;8.156;2023-06-24T05:42:13;18.80;99.90
10263;DHT22;5177;50.068;8.156;2023-06-24T05:44:39;19.00;99.90
10263;DHT22;5177;50.068;8.156;2023-06-24T05:47:04;19.00;1.00
10263;DHT22;5177;50.068;8.156;2023-06-24T05:49:30;19.00;1.00
10263;DHT22;5177;50.068;8.156;2023-06-24T05:51:56;19.10;1.00
10263;DHT22;5177;50.068;8.156;2023-06-24T05:54:21;19.20;1.00
10263;DHT22;5177;50.068;8.156;2023-06-24T05:56:47;19.30;1.00
10263;DHT22;5177;50.068;8.156;2023-06-24T05:59:12;19.30;1.00
10263;DHT22;5177;50.068;8.156;2023-06-24T06:01:38;19.50;99.90
10263;DHT22;5177;50.068;8.156;2023-06-24T06:04:03;19.50;1.00
10263;DHT22;5177;50.068;8.156;2023-06-24T06:06:30;19.60;99.90
10263;DHT22;5177;50.068;8.156;2023-06-24T06:08:56;19.70;99.90
10263;DHT22;5177;50.068;8.156;2023-06-24T06:11:21;19.80;99.90
10263;DHT22;5177;50.068;8.156;2023-06-24T06:13:47;19.90;1.00
10263;DHT22;5177;50.068;8.156;2023-06-24T06:16:12;19.90;1.00
10263;DHT22;5177;50.068;8.156;2023-06-24T06:18:38;20.00;99.90
10263;DHT22;5177;50.068;8.156;2023-06-24T06:21:04;20.10;99.90
10263;DHT22;5177;50.068;8.156;2023-06-24T06:23:29;20.10;99.90
10263;DHT22;5177;50.068;8.156;2023-06-24T06:25:55;20.00;99.90
10263;DHT22;5177;50.068;8.156;2023-06-24T06:28:20;20.10;99.90
10263;DHT22;5177;50.068;8.156;2023-06-24T06:30:46;20.20;99.90
10263;DHT22;5177;50.068;8.156;2023-06-24T06:33:11;20.20;1.00
10263;DHT22;5177;50.068;8.156;2023-06-24T06:35:37;20.40;1.00
10263;DHT22;5177;50.068;8.156;2023-06-24T06:38:02;20.40;1.00
10263;DHT22;5177;50.068;8.156;2023-06-24T06:40:28;20.60;1.00
10263;DHT22;5177;50.068;8.156;2023-06-24T06:42:53;20.80;1.00
10263;DHT22;5177;50.068;8.156;2023-06-24T06:45:19;20.90;1.00
10263;DHT22;5177;50.068;8.156;2023-06-24T06:47:44;21.00;99.90
10263;DHT22;5177;50.068;8.156;2023-06-24T06:50:10;21.10;99.90
10263;DHT22;5177;50.068;8.156;2023-06-24T06:52:35;21.20;14.50
10263;DHT22;5177;50.068;8.156;2023-06-24T06:55:01;21.30;1.00
10263;DHT22;5177;50.068;8.156;2023-06-24T06:57:27;21.30;1.00
10263;DHT22;5177;50.068;8.156;2023-06-24T06:59:53;21.50;99.90
10263;DHT22;5177;50.068;8.156;2023-06-24T07:02:18;21.50;99.90
10263;DHT22;5177;50.068;8.156;2023-06-24T07:04:44;21.50;99.90
10263;DHT22;5177;50.068;8.156;2023-06-24T07:07:10;21.50;99.90
10263;DHT22;5177;50.068;8.156;2023-06-24T07:09:35;21.70;99.90
10263;DHT22;5177;50.068;8.156;2023-06-24T07:12:01;21.70;99.90
10263;DHT22;5177;50.068;8.156;2023-06-24T07:14:26;21.80;99.90
10263;DHT22;5177;50.068;8.156;2023-06-24T07:16:52;21.80;99.90
10263;DHT22;5177;50.068;8.156;2023-06-24T07:19:17;22.00;99.90
10263;DHT22;5177;50.068;8.156;2023-06-24T07:24:46;22.30;55.30
10263;DHT22;5177;50.068;8.156;2023-06-24T07:27:12;22.40;44.90
10263;DHT22;5177;50.068;8.156;2023-06-24T07:29:37;22.50;1.00
10263;DHT22;5177;50.068;8.156;2023-06-24T07:32:03;22.60;1.00
10263;DHT22;5177;50.068;8.156;2023-06-24T07:34:29;22.60;1.00
10263;DHT22;5177;50.068;8.156;2023-06-24T07:36:54;22.80;1.00
10263;DHT22;5177;50.068;8.156;2023-06-24T07:39:20;22.90;1.00
10263;DHT22;5177;50.068;8.156;2023-06-24T07:41:45;22.90;1.00
10263;DHT22;5177;50.068;8.156;2023-06-24T07:44:11;23.00;1.00
10263;DHT22;5177;50.068;8.156;2023-06-24T07:46:36;23.10;99.90
10263;DHT22;5177;50.068;8.156;2023-06-24T07:49:02;23.20;99.90
10263;DHT22;5177;50.068;8.156;2023-06-24T07:51:27;23.40;99.90
10263;DHT22;5177;50.068;8.156;2023-06-24T07:53:53;23.60;99.90
10263;DHT22;5177;50.068;8.156;2023-06-24T07:56:18;23.60;99.90
10263;DHT22;5177;50.068;8.156;2023-06-24T07:58:44;23.60;99.90
10263;DHT22;5177;50.068;8.156;2023-06-24T08:01:09;23.70;99.90
10263;DHT22;5177;50.068;8.156;2023-06-24T08:03:35;23.80;70.00
10263;DHT22;5177;50.068;8.156;2023-06-24T08:06:02;24.00;50.60
10263;DHT22;5177;50.068;8.156;2023-06-24T08:08:28;24.00;45.50
10263;DHT22;5177;50.068;8.156;2023-06-24T08:10:53;24.00;14.70
10263;DHT22;5177;50.068;8.156;2023-06-24T08:13:19;24.20;12.20
10263;DHT22;5177;50.068;8.156;2023-06-24T08:15:44;24.50;1.00
10263;DHT22;5177;50.068;8.156;2023-06-24T08:18:10;24.50;1.00
10263;DHT22;5177;50.068;8.156;2023-06-24T08:20:35;24.50;1.00
10263;DHT22;5177;50.068;8.156;2023-06-24T08:23:01;24.80;1.00
10263;DHT22;5177;50.068;8.156;2023-06-24T08:25:27;25.00;1.00
10263;DHT22;5177;50.068;8.156;2023-06-24T08:27:52;25.10;1.00
10263;DHT22;5177;50.068;8.156;2023-06-24T08:30:18;25.10;1.00
10263;DHT22;5177;50.068;8.156;2023-06-24T08:32:43;25.30;1.00
10263;DHT22;5177;50.068;8.156;2023-06-24T08:35:09;25.40;1.00
10263;DHT22;5177;50.068;8.156;2023-06-24T08:37:35;25.60;99.90
10263;DHT22;5177;50.068;8.156;2023-06-24T08:40:01;25.70;99.90
10263;DHT22;5177;50.068;8.156;2023-06-24T08:42:27;25.90;99.90
10263;DHT22;5177;50.068;8.156;2023-06-24T08:44:52;26.00;99.90
10263;DHT22;5177;50.068;8.156;2023-06-24T08:47:18;26.10;99.90
10263;DHT22;5177;50.068;8.156;2023-06-24T08:49:47;26.20;99.90
10263;DHT22;5177;50.068;8.156;2023-06-24T08:52:16;26.40;99.90
10263;DHT22;5177;50.068;8.156;2023-06-24T08:54:44;26.10;99.90
10263;DHT22;5177;50.068;8.156;2023-06-24T08:57:11;26.40;99.90
10263;DHT22;5177;50.068;8.156;2023-06-24T08:59:40;26.30;99.90
10263;DHT22;5177;50.068;8.156;2023-06-24T09:02:06;26.30;99.90
10263;DHT22;5177;50.068;8.156;2023-06-24T09:04:32;26.40;99.90
10263;DHT22;5177;50.068;8.156;2023-06-24T09:06:57;26.60;99.90
10263;DHT22;5177;50.068;8.156;2023-06-24T09:09:23;26.60;99.90
10263;DHT22;5177;50.068;8.156;2023-06-24T09:11:56;26.70;99.90
10263;DHT22;5177;50.068;8.156;2023-06-24T09:14:23;26.70;93.00
10263;DHT22;5177;50.068;8.156;2023-06-24T09:16:55;26.70;1.00
10263;DHT22;5177;50.068;8.156;2023-06-24T09:19:25;26.80;1.00
10263;DHT22;5177;50.068;8.156;2023-06-24T09:22:01;27.10;1.00
10263;DHT22;5177;50.068;8.156;2023-06-24T09:24:27;27.20;1.00
10263;DHT22;5177;50.068;8.156;2023-06-24T09:26:55;27.60;1.00
10263;DHT22;5177;50.068;8.156;2023-06-24T09:29:22;27.80;1.00
10263;DHT22;5177;50.068;8.156;2023-06-24T09:31:50;27.90;1.00
10263;DHT22;5177;50.068;8.156;2023-06-24T09:34:18;27.90;1.00
10263;DHT22;5177;50.068;8.156;2023-06-24T09:36:44;28.20;1.00
10263;DHT22;5177;50.068;8.156;2023-06-24T09:39:10;28.40;1.00
10263;DHT22;5177;50.068;8.156;2023-06-24T09:41:35;28.60;1.00
10263;DHT22;5177;50.068;8.156;2023-06-24T09:44:02;28.40;1.00
10263;DHT22;5177;50.068;8.156;2023-06-24T09:46:29;28.60;1.00
10263;DHT22;5177;50.068;8.156;2023-06-24T09:48:55;28.50;1.00
10263;DHT22;5177;50.068;8.156;2023-06-24T09:51:21;28.60;1.00
10263;DHT22;5177;50.068;8.156;2023-06-24T09:53:48;28.90;1.00
10263;DHT22;5177;50.068;8.156;2023-06-24T09:56:14;29.00;1.00
10263;DHT22;5177;50.068;8.156;2023-06-24T09:58:41;29.30;1.00
10263;DHT22;5177;50.068;8.156;2023-06-24T10:04:17;29.40;1.00
10263;DHT22;5177;50.068;8.156;2023-06-24T10:06:43;29.40;1.00
10263;DHT22;5177;50.068;8.156;2023-06-24T10:09:08;29.50;1.00
10263;DHT22;5177;50.068;8.156;2023-06-24T10:11:34;29.60;1.00
10263;DHT22;5177;50.068;8.156;2023-06-24T10:14:00;29.60;1.00
10263;DHT22;5177;50.068;8.156;2023-06-24T10:16:25;29.30;1.00
10263;DHT22;5177;50.068;8.156;2023-06-24T10:18:51;29.50;1.00
10263;DHT22;5177;50.068;8.156;2023-06-24T10:21:16;29.90;1.00
10263;DHT22;5177;50.068;8.156;2023-06-24T10:23:43;29.90;1.00
10263;DHT22;5177;50.068;8.156;2023-06-24T10:36:52;30.60;1.00
10263;DHT22;5177;50.068;8.156;2023-06-24T10:50:40;29.80;1.00
10263;DHT22;5177;50.068;8.156;2023-06-24T10:53:07;30.10;1.00
10263;DHT22;5177;50.068;8.156;2023-06-24T10:55:33;30.30;1.00
10263;DHT22;5177;50.068;8.156;2023-06-24T10:58:10;30.40;1.00
10263;DHT22;5177;50.068;8.156;2023-06-24T11:00:37;30.50;1.00
10263;DHT22;5177;50.068;8.156;2023-06-24T11:03:12;30.70;1.00
10263;DHT22;5177;50.068;8.156;2023-06-24T11:05:38;30.80;1.00
10263;DHT22;5177;50.068;8.156;2023-06-24T11:08:05;30.80;1.00
10263;DHT22;5177;50.068;8.156;2023-06-24T11:10:31;31.10;1.00
10263;DHT22;5177;50.068;8.156;2023-06-24T11:12:56;31.00;1.00
10263;DHT22;5177;50.068;8.156;2023-06-24T11:15:24;31.40;1.00
10263;DHT22;5177;50.068;8.156;2023-06-24T11:17:50;31.50;1.00
10263;DHT22;5177;50.068;8.156;2023-06-24T11:20:15;32.00;1.00
10263;DHT22;5177;50.068;8.156;2023-06-24T11:22:41;32.00;1.00
10263;DHT22;5177;50.068;8.156;2023-06-24T11:25:17;31.80;1.00
10263;DHT22;5177;50.068;8.156;2023-06-24T11:27:43;31.90;1.00
10263;DHT22;5177;50.068;8.156;2023-06-24T11:30:09;31.90;1.00
10263;DHT22;5177;50.068;8.156;2023-06-24T11:32:35;32.30;1.00
10263;DHT22;5177;50.068;8.156;2023-06-24T11:35:00;32.60;1.00
10263;DHT22;5177;50.068;8.156;2023-06-24T11:37:30;32.80;1.00
10263;DHT22;5177;50.068;8.156;2023-06-24T11:40:08;32.40;1.00
10263;DHT22;5177;50.068;8.156;2023-06-24T11:42:37;32.30;1.00
10263;DHT22;5177;50.068;8.156;2023-06-24T11:45:07;32.20;1.00
10263;DHT22;5177;50.068;8.156;2023-06-24T11:47:33;31.90;1.00
10263;DHT22;5177;50.068;8.156;2023-06-24T11:49:59;31.80;1.00
10263;DHT22;5177;50.068;8.156;2023-06-24T11:52:33;32.00;1.00
10263;DHT22;5177;50.068;8.156;2023-06-24T11:55:03;31.60;1.00
10263;DHT22;5177;50.068;8.156;2023-06-24T12:00:14;32.10;1.00
10263;DHT22;5177;50.068;8.156;2023-06-24T12:02:39;32.30;1.00
10263;DHT22;5177;50.068;8.156;2023-06-24T12:05:05;31.90;1.00
10263;DHT22;5177;50.068;8.156;2023-06-24T12:07:31;31.80;1.00
10263;DHT22;5177;50.068;8.156;2023-06-24T12:09:56;32.10;1.00
10263;DHT22;5177;50.068;8.156;2023-06-24T12:12:22;32.10;1.00
10263;DHT22;5177;50.068;8.156;2023-06-24T12:14:47;32.40;1.00
10263;DHT22;5177;50.068;8.156;2023-06-24T12:17:13;32.80;1.00
10263;DHT22;5177;50.068;8.156;2023-06-24T12:22:41;33.10;1.00
10263;DHT22;5177;50.068;8.156;2023-06-24T12:25:12;33.30;1.00
10263;DHT22;5177;50.068;8.156;2023-06-24T12:27:38;33.50;1.00
10263;DHT22;5177;50.068;8.156;2023-06-24T12:30:05;33.70;1.00
10263;DHT22;5177;50.068;8.156;2023-06-24T12:32:31;33.90;1.00
10263;DHT22;5177;50.068;8.156;2023-06-24T12:34:57;34.00;1.00
10263;DHT22;5177;50.068;8.156;2023-06-24T12:37:22;33.90;1.00
10263;DHT22;5177;50.068;8.156;2023-06-24T12:39:48;32.70;1.00
10263;DHT22;5177;50.068;8.156;2023-06-24T12:42:16;32.50;1.00
10263;DHT22;5177;50.068;8.156;2023-06-24T12:44:41;32.90;1.00
10263;DHT22;5177;50.068;8.156;2023-06-24T12:47:07;33.00;1.00
10263;DHT22;5177;50.068;8.156;2023-06-24T12:49:33;33.10;1.00
10263;DHT22;5177;50.068;8.156;2023-06-24T12:51:58;33.20;1.00
10263;DHT22;5177;50.068;8.156;2023-06-24T12:54:23;33.60;1.00
10263;DHT22;5177;50.068;8.156;2023-06-24T12:56:49;33.20;1.00
10263;DHT22;5177;50.068;8.156;2023-06-24T12:59:15;33.30;1.00
10263;DHT22;5177;50.068;8.156;2023-06-24T13:01:40;33.40;1.00
10263;DHT22;5177;50.068;8.156;2023-06-24T13:04:10;33.80;1.00
10263;DHT22;5177;50.068;8.156;2023-06-24T13:06:35;34.20;1.00
10263;DHT22;5177;50.068;8.156;2023-06-24T13:09:01;34.70;1.00
10263;DHT22;5177;50.068;8.156;2023-06-24T13:11:27;33.90;1.00
10263;DHT22;5177;50.068;8.156;2023-06-24T13:13:52;33.20;1.00
10263;DHT22;5177;50.068;8.156;2023-06-24T13:16:18;32.60;1.00
10263;DHT22;5177;50.068;8.156;2023-06-24T13:18:43;32.60;1.00
10263;DHT22;5177;50.068;8.156;2023-06-24T13:21:09;32.90;1.00
10263;DHT22;5177;50.068;8.156;2023-06-24T13:23:34;32.70;1.00
10263;DHT22;5177;50.068;8.156;2023-06-24T13:26:02;32.50;1.00
10263;DHT22;5177;50.068;8.156;2023-06-24T13:28:28;32.40;1.00
10263;DHT22;5177;50.068;8.156;2023-06-24T13:30:53;32.00;1.00
10263;DHT22;5177;50.068;8.156;2023-06-24T13:33:19;31.70;1.00
10263;DHT22;5177;50.068;8.156;2023-06-24T13:35:45;31.20;1.00
10263;DHT22;5177;50.068;8.156;2023-06-24T13:38:10;31.00;1.00
10263;DHT22;5177;50.068;8.156;2023-06-24T13:40:37;30.90;1.00
10263;DHT22;5177;50.068;8.156;2023-06-24T13:43:03;30.90;1.00
10263;DHT22;5177;50.068;8.156;2023-06-24T13:45:28;30.80;1.00
10263;DHT22;5177;50.068;8.156;2023-06-24T13:47:54;30.60;1.00
10263;DHT22;5177;50.068;8.156;2023-06-24T13:50:20;30.50;1.00
10263;DHT22;5177;50.068;8.156;2023-06-24T13:52:46;30.40;1.00
10263;DHT22;5177;50.068;8.156;2023-06-24T13:55:11;30.50;1.00
10263;DHT22;5177;50.068;8.156;2023-06-24T13:57:37;30.30;1.00
10263;DHT22;5177;50.068;8.156;2023-06-24T14:00:02;30.60;1.00
10263;DHT22;5177;50.068;8.156;2023-06-24T14:02:28;30.70;1.00
10263;DHT22;5177;50.068;8.156;2023-06-24T14:04:53;30.40;1.00
10263;DHT22;5177;50.068;8.156;2023-06-24T14:07:19;30.20;1.00
10263;DHT22;5177;50.068;8.156;2023-06-24T14:09:44;30.20;1.00
10263;DHT22;5177;50.068;8.156;2023-06-24T14:12:10;30.10;1.00
10263;DHT22;5177;50.068;8.156;2023-06-24T14:17:41;30.20;1.00
10263;DHT22;5177;50.068;8.156;2023-06-24T14:20:07;31.50;1.00
10263;DHT22;5177;50.068;8.156;2023-06-24T14:22:33;32.60;1.00
10263;DHT22;5177;50.068;8.156;2023-06-24T14:24:58;34.00;1.00
10263;DHT22;5177;50.068;8.156;2023-06-24T14:27:24;35.10;1.00
10263;DHT22;5177;50.068;8.156;2023-06-24T14:29:49;35.90;1.00
10263;DHT22;5177;50.068;8.156;2023-06-24T14:32:15;36.00;1.00
10263;DHT22;5177;50.068;8.156;2023-06-24T14:34:40;35.50;1.00
10263;DHT22;5177;50.068;8.156;2023-06-24T14:37:11;35.30;1.00
10263;DHT22;5177;50.068;8.156;2023-06-24T14:39:37;35.50;1.00
10263;DHT22;5177;50.068;8.156;2023-06-24T14:42:05;36.00;1.00
10263;DHT22;5177;50.068;8.156;2023-06-24T14:44:30;36.50;1.00
10263;DHT22;5177;50.068;8.156;2023-06-24T14:46:56;36.80;1.00
10263;DHT22;5177;50.068;8.156;2023-06-24T14:49:21;36.80;1.00
10263;DHT22;5177;50.068;8.156;2023-06-24T14:51:46;36.50;1.00
10263;DHT22;5177;50.068;8.156;2023-06-24T14:54:12;36.70;1.00
10263;DHT22;5177;50.068;8.156;2023-06-24T14:56:38;37.00;1.00
10263;DHT22;5177;50.068;8.156;2023-06-24T14:59:03;37.60;1.00
10263;DHT22;5177;50.068;8.156;2023-06-24T15:01:29;37.60;1.00
10263;DHT22;5177;50.068;8.156;2023-06-24T15:03:54;36.60;1.00
10263;DHT22;5177;50.068;8.156;2023-06-24T15:06:20;36.30;1.00
10263;DHT22;5177;50.068;8.156;2023-06-24T15:08:45;36.10;1.00
10263;DHT22;5177;50.068;8.156;2023-06-24T15:11:11;36.40;1.00
10263;DHT22;5177;50.068;8.156;2023-06-24T15:13:36;36.80;1.00
10263;DHT22;5177;50.068;8.156;2023-06-24T15:16:02;36.20;1.00
10263;DHT22;5177;50.068;8.156;2023-06-24T15:18:28;35.50;1.00
10263;DHT22;5177;50.068;8.156;2023-06-24T15:20:53;34.70;1.00
10263;DHT22;5177;50.068;8.156;2023-06-24T15:23:19;35.30;1.00
10263;DHT22;5177;50.068;8.156;2023-06-24T15:25:45;35.10;1.00
10263;DHT22;5177;50.068;8.156;2023-06-24T15:28:10;35.30;1.00
10263;DHT22;5177;50.068;8.156;2023-06-24T15:30:36;35.80;1.00
10263;DHT22;5177;50.068;8.156;2023-06-24T15:33:01;35.30;1.00
10263;DHT22;5177;50.068;8.156;2023-06-24T15:35:27;34.60;1.00
10263;DHT22;5177;50.068;8.156;2023-06-24T15:37:52;34.40;1.00
10263;DHT22;5177;50.068;8.156;2023-06-24T15:40:18;33.80;1.00
10263;DHT22;5177;50.068;8.156;2023-06-24T15:42:43;33.40;1.00
10263;DHT22;5177;50.068;8.156;2023-06-24T15:45:09;32.80;1.00
10263;DHT22;5177;50.068;8.156;2023-06-24T15:47:34;32.20;1.00
10263;DHT22;5177;50.068;8.156;2023-06-24T15:50:00;31.90;1.00
10263;DHT22;5177;50.068;8.156;2023-06-24T15:52:25;31.60;1.00
10263;DHT22;5177;50.068;8.156;2023-06-24T15:54:51;31.40;1.00
10263;DHT22;5177;50.068;8.156;2023-06-24T15:57:16;31.50;1.00
10263;DHT22;5177;50.068;8.156;2023-06-24T15:59:42;31.40;1.00
10263;DHT22;5177;50.068;8.156;2023-06-24T16:02:07;31.10;1.00
10263;DHT22;5177;50.068;8.156;2023-06-24T16:04:33;30.80;1.00
10263;DHT22;5177;50.068;8.156;2023-06-24T16:06:58;30.60;1.00
10263;DHT22;5177;50.068;8.156;2023-06-24T16:09:24;30.40;1.00
10263;DHT22;5177;50.068;8.156;2023-06-24T16:11:49;30.10;1.00
10263;DHT22;5177;50.068;8.156;2023-06-24T16:14:15;29.90;1.00
10263;DHT22;5177;50.068;8.156;2023-06-24T16:16:40;29.70;1.00
10263;DHT22;5177;50.068;8.156;2023-06-24T16:19:07;29.60;1.00
10263;DHT22;5177;50.068;8.156;2023-06-24T16:21:32;29.60;1.00
10263;DHT22;5177;50.068;8.156;2023-06-24T16:23:58;29.60;1.00
10263;DHT22;5177;50.068;8.156;2023-06-24T16:26:23;29.50;1.00
10263;DHT22;5177;50.068;8.156;2023-06-24T16:28:49;29.40;1.00
10263;DHT22;5177;50.068;8.156;2023-06-24T16:31:16;29.30;1.00
10263;DHT22;5177;50.068;8.156;2023-06-24T16:33:42;29.30;1.00
10263;DHT22;5177;50.068;8.156;2023-06-24T16:36:07;29.20;1.00
10263;DHT22;5177;50.068;8.156;2023-06-24T16:38:33;29.00;1.00
10263;DHT22;5177;50.068;8.156;2023-06-24T16:40:58;29.10;1.00
10263;DHT22;5177;50.068;8.156;2023-06-24T16:43:26;29.00;1.00